createdAt,value
2023-03-18T00:01:07.718Z,99.60
2023-03-18T00:03:38.674Z,98.70
2023-03-18T00:06:08.679Z,98.40
2023-03-18T00:08:39.433Z,98.60
2023-03-18T00:11:08.041Z,98.20
2023-03-18T00:13:36.684Z,97.90
2023-03-18T00:16:07.242Z,97.20
2023-03-18T00:18:35.612Z,96.80
2023-03-18T00:21:03.852Z,96.50
2023-03-18T00:23:33.270Z,96.60
2023-03-18T00:26:03.085Z,96.50
2023-03-18T00:28:32.724Z,96.20
2023-03-18T00:31:05.357Z,96.50
2023-03-18T00:33:33.785Z,96.00
2023-03-18T00:36:02.799Z,95.70
2023-03-18T00:38:30.778Z,95.60
2023-03-18T00:41:11.439Z,95.00
2023-03-18T00:43:52.599Z,95.70
2023-03-18T00:46:23.526Z,95.70
2023-03-18T00:48:52.538Z,95.60
2023-03-18T00:51:22.823Z,95.80
2023-03-18T00:53:53.134Z,95.70
2023-03-18T00:56:23.994Z,96.20
2023-03-18T00:58:53.898Z,96.00
2023-03-18T01:01:23.060Z,96.00
2023-03-18T01:03:51.665Z,96.10
2023-03-18T01:06:25.634Z,96.30
2023-03-18T01:08:53.840Z,96.30
2023-03-18T01:11:21.974Z,96.10
2023-03-18T01:13:50.157Z,95.70
2023-03-18T01:16:20.964Z,95.50
2023-03-18T01:21:23.637Z,95.70
2023-03-18T01:23:51.521Z,95.60
2023-03-18T01:26:19.649Z,95.20
2023-03-18T01:28:48.117Z,95.10
2023-03-18T01:31:16.369Z,94.90
2023-03-18T01:33:46.081Z,95.00
2023-03-18T01:36:15.381Z,95.30
2023-03-18T01:38:43.242Z,94.80
2023-03-18T01:41:12.426Z,94.40
2023-03-18T01:43:43.696Z,94.10
2023-03-18T01:46:37.480Z,94.20
2023-03-18T01:49:10.678Z,94.30
2023-03-18T01:51:40.702Z,94.10
2023-03-18T01:54:10.418Z,94.30
2023-03-18T01:56:41.528Z,94.00
2023-03-18T01:59:10.547Z,93.70
2023-03-18T02:01:43.856Z,94.30
2023-03-18T02:04:19.108Z,93.70
2023-03-18T02:06:47.145Z,93.60
2023-03-18T02:09:16.112Z,93.60
2023-03-18T02:11:46.739Z,93.80
2023-03-18T02:14:17.028Z,94.20
2023-03-18T02:16:48.614Z,94.10
2023-03-18T02:19:30.571Z,93.50
2023-03-18T02:22:06.506Z,93.70
2023-03-18T02:24:40.576Z,94.00
2023-03-18T02:27:18.300Z,93.70
2023-03-18T02:29:47.824Z,93.30
2023-03-18T02:32:17.186Z,93.20
2023-03-18T02:34:46.711Z,93.50
2023-03-18T02:37:14.650Z,93.20
2023-03-18T02:39:42.488Z,93.20
2023-03-18T02:42:13.054Z,93.60
2023-03-18T02:44:44.839Z,93.90
2023-03-18T02:47:16.116Z,94.60
2023-03-18T02:49:44.569Z,94.90
2023-03-18T02:52:12.808Z,94.30
2023-03-18T02:54:41.171Z,95.20
2023-03-18T02:57:09.144Z,95.80
2023-03-18T02:59:36.940Z,94.80
2023-03-18T03:02:06.611Z,94.80
2023-03-18T03:04:34.946Z,95.30
2023-03-18T03:07:02.823Z,96.10
2023-03-18T03:09:31.123Z,96.00
2023-03-18T03:11:58.978Z,97.20
2023-03-18T03:14:26.946Z,97.90
2023-03-18T03:16:54.839Z,98.20
2023-03-18T03:19:24.035Z,97.60
2023-03-18T03:21:52.284Z,98.30
2023-03-18T03:24:20.411Z,97.60
2023-03-18T03:26:48.620Z,97.40
2023-03-18T03:29:16.441Z,97.40
2023-03-18T03:31:44.290Z,98.50
2023-03-18T03:34:12.259Z,98.30
2023-03-18T03:36:41.596Z,98.10
2023-03-18T03:39:09.481Z,98.40
2023-03-18T03:41:37.404Z,98.80
2023-03-18T03:44:05.369Z,99.10
2023-03-18T03:46:33.277Z,99.90
2023-03-18T03:49:01.344Z,99.90
2023-03-18T03:51:29.380Z,99.90
2023-03-18T03:53:59.012Z,99.90
2023-03-18T03:56:27.329Z,99.90
2023-03-18T03:58:55.363Z,99.90
2023-03-18T04:01:23.346Z,99.90
2023-03-18T04:03:51.384Z,99.90
2023-03-18T04:06:19.598Z,99.90
2023-03-18T04:08:47.650Z,99.90
2023-03-18T04:11:17.324Z,99.90
2023-03-18T04:13:45.638Z,99.90
2023-03-18T04:16:14.551Z,99.90
2023-03-18T04:18:42.593Z,99.90
2023-03-18T04:21:10.740Z,99.90
2023-03-18T04:23:38.805Z,99.90
2023-03-18T04:26:07.079Z,99.90
2023-03-18T04:28:36.528Z,99.90
2023-03-18T04:31:04.861Z,99.90
2023-03-18T04:33:33.566Z,99.90
2023-03-18T04:36:01.769Z,99.90
2023-03-18T04:38:29.817Z,99.90
2023-03-18T04:40:57.959Z,99.90
2023-03-18T04:43:25.998Z,99.90
2023-03-18T04:45:55.481Z,99.90
2023-03-18T04:48:23.452Z,99.90
2023-03-18T04:50:51.567Z,99.90
2023-03-18T04:53:19.918Z,99.90
2023-03-18T04:55:49.449Z,99.90
2023-03-18T04:58:17.892Z,99.90
2023-03-18T05:00:46.215Z,99.90
2023-03-18T05:03:15.935Z,99.90
2023-03-18T05:05:44.114Z,99.90
2023-03-18T05:08:12.889Z,99.90
2023-03-18T05:10:41.395Z,99.90
2023-03-18T05:13:11.173Z,99.90
2023-03-18T05:15:39.185Z,99.90
2023-03-18T05:18:07.255Z,99.90
2023-03-18T05:20:36.567Z,99.90
2023-03-18T05:23:04.844Z,99.90
2023-03-18T05:25:33.516Z,99.90
2023-03-18T05:28:01.940Z,99.90
2023-03-18T05:30:30.006Z,99.90
2023-03-18T05:32:58.624Z,99.90
2023-03-18T05:35:26.655Z,99.90
2023-03-18T05:37:56.077Z,99.90
2023-03-18T05:40:24.216Z,99.90
2023-03-18T05:42:56.261Z,99.90
2023-03-18T05:45:24.877Z,99.90
2023-03-18T05:47:53.183Z,99.90
2023-03-18T05:50:30.129Z,99.90
2023-03-18T05:52:59.903Z,99.90
2023-03-18T05:55:28.436Z,99.90
2023-03-18T05:57:57.260Z,99.90
2023-03-18T06:00:25.835Z,99.90
2023-03-18T06:02:54.099Z,99.90
2023-03-18T06:05:23.242Z,99.90
2023-03-18T06:07:51.515Z,99.90
2023-03-18T06:10:22.678Z,99.90
2023-03-18T06:12:51.303Z,99.90
2023-03-18T06:15:21.498Z,99.90
2023-03-18T06:17:50.035Z,99.90
2023-03-18T06:20:19.676Z,99.90
2023-03-18T06:22:49.984Z,99.90
2023-03-18T06:25:21.765Z,99.90
2023-03-18T06:27:50.041Z,99.90
2023-03-18T06:30:19.254Z,99.90
2023-03-18T06:32:47.932Z,99.90
2023-03-18T06:35:16.699Z,99.90
2023-03-18T06:37:44.736Z,99.90
2023-03-18T06:40:13.424Z,99.90
2023-03-18T06:42:43.088Z,99.90
2023-03-18T06:45:12.118Z,99.90
2023-03-18T06:47:41.175Z,99.90
2023-03-18T06:50:10.398Z,99.90
2023-03-18T06:52:39.189Z,99.90
2023-03-18T06:55:08.154Z,99.90
2023-03-18T06:57:36.136Z,99.90
2023-03-18T07:00:06.322Z,99.90
2023-03-18T07:02:34.677Z,99.90
2023-03-18T07:05:04.368Z,99.90
2023-03-18T07:07:32.564Z,99.90
2023-03-18T07:10:00.794Z,99.90
2023-03-18T07:12:28.974Z,99.90
2023-03-18T07:14:56.922Z,99.90
2023-03-18T08:11:26.126Z,84.50
2023-03-18T08:13:54.309Z,87.10
2023-03-18T08:16:23.231Z,84.10
2023-03-18T08:19:02.446Z,82.30
2023-03-18T08:21:30.924Z,81.00
2023-03-18T08:23:59.040Z,81.50
2023-03-18T08:26:30.722Z,81.40
2023-03-18T08:28:58.742Z,81.40
2023-03-18T08:31:29.094Z,83.70
2023-03-18T08:34:00.615Z,84.60
2023-03-18T08:36:28.793Z,85.90
2023-03-18T08:38:58.115Z,85.10
2023-03-18T08:41:26.654Z,81.70
2023-03-18T08:44:01.846Z,81.70
2023-03-18T08:46:30.440Z,80.10
2023-03-18T08:48:59.870Z,81.80
2023-03-18T08:51:29.381Z,78.90
2023-03-18T08:54:00.675Z,79.60
2023-03-18T08:56:29.170Z,79.20
2023-03-18T08:59:05.219Z,79.40
2023-03-18T09:01:33.453Z,79.30
2023-03-18T09:04:02.631Z,79.40
2023-03-18T09:06:31.549Z,79.50
2023-03-18T09:09:01.980Z,80.90
2023-03-18T09:11:31.370Z,77.40
2023-03-18T09:14:00.902Z,78.50
2023-03-18T09:16:35.942Z,75.80
2023-03-18T09:19:04.373Z,76.60
2023-03-18T09:21:36.240Z,78.30
2023-03-18T09:24:07.088Z,77.20
2023-03-18T09:26:39.911Z,79.30
2023-03-18T09:36:14.860Z,76.00
2023-03-18T09:38:43.860Z,75.80
2023-03-18T09:41:25.715Z,79.90
2023-03-18T09:44:04.222Z,77.10
2023-03-18T09:46:48.005Z,76.30
2023-03-18T09:49:33.211Z,77.60
2023-03-18T09:52:14.189Z,74.80
2023-03-18T09:54:47.279Z,77.60
2023-03-18T09:57:20.641Z,73.10
2023-03-18T09:59:51.856Z,74.20
2023-03-18T10:02:24.758Z,76.00
2023-03-18T10:04:57.444Z,79.00
2023-03-18T10:07:31.091Z,76.60
2023-03-18T10:10:04.676Z,78.60
2023-03-18T10:12:35.539Z,79.80
2023-03-18T10:15:14.978Z,79.10
2023-03-18T10:17:47.310Z,78.10
2023-03-18T10:20:19.936Z,79.00
2023-03-18T10:23:07.215Z,83.30
2023-03-18T10:25:39.010Z,82.60
2023-03-18T10:28:42.602Z,82.20
2023-03-18T10:31:25.612Z,79.80
2023-03-18T10:34:00.155Z,83.50
2023-03-18T10:36:39.296Z,78.20
2023-03-18T10:39:15.364Z,79.50
2023-03-18T10:41:49.978Z,77.00
2023-03-18T10:44:22.800Z,78.10
2023-03-18T10:46:59.936Z,78.00
2023-03-18T10:49:32.988Z,77.80
2023-03-18T10:52:07.836Z,79.80
2023-03-18T10:54:41.282Z,78.60
2023-03-18T10:57:14.267Z,78.50
2023-03-18T10:59:44.729Z,80.70
2023-03-18T11:02:19.677Z,80.20
2023-03-18T11:04:55.451Z,80.20
2023-03-18T11:07:26.770Z,79.80
2023-03-18T11:09:55.766Z,81.40
2023-03-18T11:12:27.101Z,81.30
2023-03-18T11:14:56.384Z,82.10
2023-03-18T11:17:28.223Z,83.70
2023-03-18T11:20:08.195Z,83.30
2023-03-18T11:22:38.771Z,84.20
2023-03-18T11:25:16.655Z,83.80
2023-03-18T11:27:47.233Z,83.70
2023-03-18T11:30:33.259Z,81.70
2023-03-18T11:33:06.332Z,81.70
2023-03-18T11:35:40.886Z,82.80
2023-03-18T11:38:16.328Z,84.30
2023-03-18T11:40:44.871Z,83.00
2023-03-18T11:43:20.597Z,85.20
2023-03-18T11:45:53.413Z,87.10
2023-03-18T11:48:30.629Z,86.10
2023-03-18T11:51:35.717Z,85.50
2023-03-18T11:54:15.362Z,86.00
2023-03-18T11:56:47.854Z,86.30
2023-03-18T11:59:33.586Z,87.30
2023-03-18T12:02:25.427Z,85.00
2023-03-18T12:05:28.758Z,87.30
2023-03-18T12:08:07.753Z,86.10
2023-03-18T12:10:39.022Z,84.70
2023-03-18T12:13:25.741Z,84.50
2023-03-18T12:16:05.027Z,83.40
2023-03-18T12:18:48.929Z,83.90
2023-03-18T12:21:31.843Z,85.00
2023-03-18T12:24:14.595Z,87.20
2023-03-18T12:26:52.569Z,88.30
2023-03-18T12:29:38.558Z,85.90
2023-03-18T12:32:14.548Z,84.70
2023-03-18T12:35:10.874Z,85.40
2023-03-18T12:37:53.916Z,84.60
2023-03-18T12:40:34.393Z,87.40
2023-03-18T12:43:34.990Z,87.20
2023-03-18T12:46:10.489Z,85.90
2023-03-18T12:48:46.411Z,86.30
2023-03-18T12:51:19.194Z,86.30
2023-03-18T12:53:50.191Z,87.10
2023-03-18T12:56:22.451Z,86.90
2023-03-18T12:58:55.177Z,86.00
2023-03-18T13:01:28.561Z,87.20
2023-03-18T13:04:02.088Z,87.90
2023-03-18T13:06:35.502Z,88.50
2023-03-18T13:09:13.378Z,88.00
2023-03-18T13:12:05.099Z,89.40
2023-03-18T13:14:49.270Z,87.30
2023-03-18T13:17:23.451Z,89.60
2023-03-18T13:19:51.927Z,88.70
2023-03-18T13:22:49.569Z,87.90
2023-03-18T13:25:29.040Z,88.70
2023-03-18T13:28:21.730Z,88.80
2023-03-18T13:31:07.879Z,88.70
2023-03-18T13:33:54.081Z,88.60
2023-03-18T13:36:51.673Z,89.30
2023-03-18T13:39:31.661Z,88.00
2023-03-18T13:42:22.378Z,88.20
2023-03-18T13:44:59.851Z,88.90
2023-03-18T13:47:32.777Z,88.80
2023-03-18T13:50:04.884Z,88.00
2023-03-18T13:52:41.920Z,88.70
2023-03-18T13:55:23.470Z,87.80
2023-03-18T13:57:57.466Z,87.60
2023-03-18T14:00:33.327Z,87.50
2023-03-18T14:03:17.211Z,89.00
2023-03-18T14:05:46.991Z,88.30
2023-03-18T14:08:35.363Z,86.70
2023-03-18T14:11:37.326Z,88.90
2023-03-18T14:14:07.205Z,88.10
2023-03-18T14:16:53.482Z,89.20
2023-03-18T14:19:28.501Z,88.80
2023-03-18T14:22:07.731Z,87.30
2023-03-18T14:24:36.783Z,86.90
2023-03-18T14:27:18.387Z,88.20
2023-03-18T14:29:48.173Z,87.20
2023-03-18T14:32:38.491Z,86.70
2023-03-18T14:35:28.291Z,87.90
2023-03-18T14:38:02.815Z,89.50
2023-03-18T14:40:36.287Z,88.70
2023-03-18T14:43:10.886Z,86.70
2023-03-18T14:45:44.176Z,87.50
2023-03-18T14:48:20.837Z,87.70
2023-03-18T14:50:50.917Z,85.40
2023-03-18T14:53:23.626Z,83.90
2023-03-18T14:55:55.118Z,83.80
2023-03-18T14:58:25.858Z,85.90
2023-03-18T15:00:56.207Z,88.10
2023-03-18T15:03:28.347Z,88.80
2023-03-18T15:06:00.453Z,89.10
2023-03-18T15:08:46.376Z,89.90
2023-03-18T15:11:17.495Z,89.80
2023-03-18T15:13:48.374Z,90.40
2023-03-18T15:16:20.206Z,90.80
2023-03-18T15:18:54.846Z,90.80
2023-03-18T15:21:25.970Z,91.50
2023-03-18T15:23:56.509Z,92.10
2023-03-18T15:26:27.123Z,92.00
2023-03-18T15:28:57.543Z,92.20
2023-03-18T15:31:27.562Z,90.60
2023-03-18T15:34:16.425Z,91.30
2023-03-18T15:36:46.328Z,91.20
2023-03-18T15:39:22.140Z,91.10
2023-03-18T15:41:53.978Z,91.70
2023-03-18T15:44:26.844Z,92.40
2023-03-18T15:46:56.046Z,93.00
2023-03-18T15:49:28.731Z,93.10
2023-03-18T15:52:02.424Z,94.20
2023-03-18T15:54:38.562Z,94.40
2023-03-18T15:57:13.213Z,95.30
2023-03-18T15:59:41.229Z,95.90
2023-03-18T16:02:16.470Z,95.80
2023-03-18T16:04:48.319Z,96.70
2023-03-18T16:07:22.136Z,95.00
2023-03-18T16:09:51.353Z,95.30
2023-03-18T16:12:21.969Z,95.40
2023-03-18T16:14:51.967Z,95.70
2023-03-18T16:17:22.240Z,97.20
2023-03-18T16:19:54.434Z,95.50
2023-03-18T16:22:23.235Z,96.10
2023-03-18T16:24:51.784Z,96.80
2023-03-18T16:27:30.065Z,97.40
2023-03-18T16:29:58.219Z,97.10
2023-03-18T16:32:26.358Z,97.20
2023-03-18T16:34:55.612Z,97.30
2023-03-18T16:37:25.926Z,98.10
2023-03-18T16:39:55.888Z,99.70
2023-03-18T16:42:25.181Z,99.90
2023-03-18T16:44:53.306Z,99.90
2023-03-18T16:47:23.642Z,99.90
2023-03-18T16:49:52.376Z,99.90
2023-03-18T16:52:22.006Z,99.90
2023-03-18T16:54:50.115Z,99.90
2023-03-18T16:57:21.611Z,99.90
2023-03-18T16:59:53.073Z,99.90
2023-03-18T17:02:32.481Z,99.90
2023-03-18T17:05:01.090Z,99.90
2023-03-18T17:07:30.527Z,99.90
2023-03-18T17:09:58.587Z,99.90
2023-03-18T17:12:29.175Z,99.90
2023-03-18T17:14:58.545Z,99.90
2023-03-18T17:17:30.568Z,99.90
2023-03-18T17:19:59.710Z,99.90
2023-03-18T17:22:29.516Z,99.90
2023-03-18T17:25:00.246Z,99.90
2023-03-18T17:27:32.874Z,99.90
2023-03-18T17:30:01.621Z,99.90
2023-03-18T17:32:29.700Z,99.90
2023-03-18T17:34:57.775Z,99.90
2023-03-18T17:37:25.786Z,99.90
2023-03-18T17:39:54.036Z,99.90
2023-03-18T17:42:29.632Z,99.90
2023-03-18T17:45:00.510Z,99.90
2023-03-18T17:47:28.636Z,99.90
2023-03-18T17:49:56.734Z,99.90
2023-03-18T17:52:25.316Z,99.90
2023-03-18T17:54:53.311Z,99.90
2023-03-18T17:57:21.278Z,99.90
2023-03-18T17:59:51.591Z,99.90
2023-03-18T18:02:20.395Z,99.90
2023-03-18T18:04:48.661Z,99.90
2023-03-18T18:07:19.091Z,99.90
2023-03-18T18:09:47.558Z,99.90
2023-03-18T18:12:19.155Z,99.90
2023-03-18T18:14:47.471Z,99.90
2023-03-18T18:17:17.412Z,99.90
2023-03-18T18:19:45.693Z,99.90
2023-03-18T18:22:19.208Z,99.90
2023-03-18T18:24:47.524Z,99.90
2023-03-18T18:27:16.328Z,99.90
2023-03-18T18:29:45.918Z,99.90
2023-03-18T18:32:16.498Z,99.90
2023-03-18T18:34:45.152Z,99.90
2023-03-18T18:37:13.429Z,99.90
2023-03-18T18:39:42.861Z,99.90
2023-03-18T18:42:12.408Z,99.90
2023-03-18T18:44:40.489Z,99.90
2023-03-18T18:47:20.272Z,99.90
2023-03-18T18:49:48.682Z,99.90
2023-03-18T18:52:16.986Z,99.90
2023-03-18T18:54:45.232Z,99.90
2023-03-18T18:57:26.744Z,99.90
2023-03-18T18:59:55.010Z,99.90
2023-03-18T19:02:31.257Z,99.90
2023-03-18T19:05:00.030Z,99.90
2023-03-18T19:07:29.383Z,99.90
2023-03-18T19:09:57.440Z,99.90
2023-03-18T19:12:25.794Z,99.90
2023-03-18T19:14:54.285Z,99.90
2023-03-18T19:17:24.324Z,99.90
2023-03-18T19:19:54.723Z,99.90
2023-03-18T19:22:23.394Z,99.90
2023-03-18T19:24:51.658Z,99.90
2023-03-18T19:27:23.963Z,99.90
2023-03-18T19:29:53.603Z,99.90
2023-03-18T19:32:23.206Z,99.90
2023-03-18T19:34:54.111Z,99.90
2023-03-18T19:37:26.073Z,99.90
2023-03-18T19:39:55.650Z,99.90
2023-03-18T19:42:24.158Z,99.90
2023-03-18T19:44:52.128Z,99.90
2023-03-18T19:47:24.157Z,99.90
2023-03-18T19:49:53.661Z,99.90
2023-03-18T19:52:23.852Z,99.90
2023-03-18T19:54:52.694Z,99.90
2023-03-18T19:57:24.381Z,99.90
2023-03-18T19:59:54.153Z,99.90
2023-03-18T20:02:24.375Z,99.90
2023-03-18T20:04:55.477Z,99.90
2023-03-18T20:07:25.666Z,99.90
2023-03-18T20:09:55.184Z,99.90
2023-03-18T20:12:26.263Z,99.90
2023-03-18T20:14:54.326Z,99.90
2023-03-18T20:17:30.815Z,99.90
2023-03-18T20:20:00.459Z,99.90
2023-03-18T20:22:32.955Z,99.90
2023-03-18T20:25:01.172Z,99.90
2023-03-18T20:27:30.168Z,99.90
2023-03-18T20:29:58.816Z,99.90
2023-03-18T20:32:27.089Z,99.90
2023-03-18T20:34:55.110Z,99.90
2023-03-18T20:37:31.050Z,99.90
2023-03-18T20:39:59.142Z,99.90
2023-03-18T20:42:27.279Z,99.90
2023-03-18T20:44:55.834Z,99.90
2023-03-18T20:47:23.881Z,99.90
2023-03-18T20:49:51.949Z,99.90
2023-03-18T20:52:27.125Z,99.90
2023-03-18T20:54:56.567Z,99.90
2023-03-18T20:57:25.083Z,99.90
2023-03-18T20:59:53.390Z,99.90
2023-03-18T21:02:29.437Z,99.90
2023-03-18T21:04:58.683Z,99.90
2023-03-18T21:07:28.511Z,99.90
2023-03-18T21:09:56.706Z,99.90
2023-03-18T21:12:25.863Z,99.90
2023-03-18T21:14:53.935Z,99.90
2023-03-18T21:17:23.958Z,99.90
2023-03-18T21:19:53.412Z,99.90
2023-03-18T21:22:23.740Z,99.90
2023-03-18T21:24:53.353Z,99.90
2023-03-18T21:27:22.815Z,99.90
2023-03-18T21:29:52.426Z,99.90
2023-03-18T21:32:25.510Z,99.90
2023-03-18T21:34:53.605Z,99.90
2023-03-18T21:37:24.562Z,99.90
2023-03-18T21:39:54.625Z,99.90
2023-03-18T21:42:25.141Z,99.90
2023-03-18T21:44:53.474Z,99.90
2023-03-18T21:47:23.751Z,99.90
2023-03-18T21:49:51.895Z,99.90
2023-03-18T21:52:27.423Z,99.90
2023-03-18T21:54:56.970Z,99.90
2023-03-18T21:57:25.892Z,99.90
2023-03-18T21:59:54.704Z,99.90
2023-03-18T22:02:28.450Z,99.90
2023-03-18T22:04:57.943Z,99.90
2023-03-18T22:07:26.271Z,99.90
2023-03-18T22:09:54.624Z,99.90
2023-03-18T22:12:26.534Z,99.90
2023-03-18T22:14:54.536Z,99.90
2023-03-18T22:17:26.235Z,99.90
2023-03-18T22:19:55.498Z,99.90
2023-03-18T22:22:28.825Z,99.90
2023-03-18T22:24:57.578Z,99.90
2023-03-18T22:27:28.789Z,99.90
2023-03-18T22:29:58.642Z,99.90
2023-03-18T22:32:40.197Z,99.90
2023-03-18T22:35:14.887Z,99.90
2023-03-18T22:37:43.235Z,99.90
2023-03-18T22:40:17.443Z,99.90
2023-03-18T22:42:47.138Z,99.90
2023-03-18T22:45:23.845Z,99.90
2023-03-18T22:47:53.346Z,99.90
2023-03-18T22:50:21.766Z,99.90
2023-03-18T22:52:51.887Z,99.90
2023-03-18T22:55:25.402Z,99.90
2023-03-18T22:57:54.917Z,99.90
2023-03-18T23:00:25.812Z,99.90
2023-03-18T23:02:55.010Z,99.90
2023-03-18T23:05:24.944Z,99.90
2023-03-18T23:07:53.600Z,99.90
2023-03-18T23:10:22.460Z,99.90
2023-03-18T23:12:50.844Z,99.90
2023-03-18T23:15:23.756Z,99.90
2023-03-18T23:17:51.978Z,99.90
2023-03-18T23:20:21.031Z,99.90
2023-03-18T23:22:49.542Z,99.90
2023-03-18T23:25:19.373Z,99.90
2023-03-18T23:27:48.150Z,99.90
2023-03-18T23:30:16.809Z,99.90
2023-03-18T23:32:46.948Z,99.90
2023-03-18T23:35:15.188Z,99.90
2023-03-18T23:37:43.372Z,99.90
2023-03-18T23:40:12.454Z,99.90
2023-03-18T23:42:40.896Z,99.90
2023-03-18T23:45:10.149Z,99.90
2023-03-18T23:47:38.832Z,99.90
2023-03-18T23:50:10.579Z,99.90
2023-03-18T23:52:38.918Z,99.90
2023-03-18T23:55:21.395Z,99.90
2023-03-18T23:57:56.479Z,99.90
